sensor_id;sensor_type;location;lat;lon;timestamp;P1;durP1;ratioP1;P2;durP2;ratioP2
3875;SDS011;1953;51.222;6.624;2024-01-30T00:00:24;29.60;;;18.73;;
3875;SDS011;1953;51.222;6.624;2024-01-30T00:05:07;30.80;;;18.80;;
3875;SDS011;1953;51.222;6.624;2024-01-30T00:09:49;32.90;;;18.07;;
3875;SDS011;1953;51.222;6.624;2024-01-30T00:14:32;31.07;;;18.30;;
3875;SDS011;1953;51.222;6.624;2024-01-30T00:20:54;28.80;;;19.43;;
3875;SDS011;1953;51.222;6.624;2024-01-30T00:25:37;30.30;;;17.90;;
3875;SDS011;1953;51.222;6.624;2024-01-30T00:30:20;32.27;;;19.23;;
3875;SDS011;1953;51.222;6.624;2024-01-30T00:35:02;27.73;;;18.77;;
3875;SDS011;1953;51.222;6.624;2024-01-30T00:39:47;28.33;;;17.40;;
3875;SDS011;1953;51.222;6.624;2024-01-30T00:44:29;26.90;;;17.30;;
3875;SDS011;1953;51.222;6.624;2024-01-30T00:49:12;39.17;;;17.87;;
3875;SDS011;1953;51.222;6.624;2024-01-30T00:53:54;32.47;;;18.30;;
3875;SDS011;1953;51.222;6.624;2024-01-30T00:58:38;30.87;;;18.07;;
3875;SDS011;1953;51.222;6.624;2024-01-30T01:03:21;31.43;;;18.70;;
3875;SDS011;1953;51.222;6.624;2024-01-30T01:08:03;33.40;;;18.80;;
3875;SDS011;1953;51.222;6.624;2024-01-30T01:12:47;32.13;;;18.30;;
3875;SDS011;1953;51.222;6.624;2024-01-30T01:17:31;30.27;;;19.03;;
3875;SDS011;1953;51.222;6.624;2024-01-30T01:22:15;32.80;;;19.37;;
3875;SDS011;1953;51.222;6.624;2024-01-30T01:26:59;33.27;;;19.13;;
3875;SDS011;1953;51.222;6.624;2024-01-30T01:31:41;30.27;;;18.40;;
3875;SDS011;1953;51.222;6.624;2024-01-30T01:36:26;28.90;;;18.77;;
3875;SDS011;1953;51.222;6.624;2024-01-30T01:41:08;32.60;;;17.67;;
3875;SDS011;1953;51.222;6.624;2024-01-30T01:45:51;28.63;;;18.57;;
3875;SDS011;1953;51.222;6.624;2024-01-30T01:50:34;29.50;;;18.20;;
3875;SDS011;1953;51.222;6.624;2024-01-30T01:55:19;31.20;;;18.20;;
3875;SDS011;1953;51.222;6.624;2024-01-30T02:00:05;29.73;;;18.47;;
3875;SDS011;1953;51.222;6.624;2024-01-30T02:04:50;34.77;;;19.90;;
3875;SDS011;1953;51.222;6.624;2024-01-30T02:09:33;31.37;;;18.87;;
3875;SDS011;1953;51.222;6.624;2024-01-30T02:14:17;27.43;;;17.77;;
3875;SDS011;1953;51.222;6.624;2024-01-30T02:18:59;26.93;;;17.70;;
3875;SDS011;1953;51.222;6.624;2024-01-30T02:23:44;27.73;;;18.30;;
3875;SDS011;1953;51.222;6.624;2024-01-30T02:28:28;27.90;;;17.60;;
3875;SDS011;1953;51.222;6.624;2024-01-30T02:33:11;30.17;;;18.00;;
3875;SDS011;1953;51.222;6.624;2024-01-30T02:37:53;32.17;;;18.30;;
3875;SDS011;1953;51.222;6.624;2024-01-30T02:42:37;29.30;;;17.63;;
3875;SDS011;1953;51.222;6.624;2024-01-30T02:47:20;29.20;;;17.70;;
3875;SDS011;1953;51.222;6.624;2024-01-30T02:52:03;33.17;;;19.00;;
3875;SDS011;1953;51.222;6.624;2024-01-30T02:56:46;32.83;;;18.37;;
3875;SDS011;1953;51.222;6.624;2024-01-30T03:01:30;27.87;;;17.07;;
3875;SDS011;1953;51.222;6.624;2024-01-30T03:06:13;34.30;;;18.23;;
3875;SDS011;1953;51.222;6.624;2024-01-30T03:10:58;28.50;;;17.63;;
3875;SDS011;1953;51.222;6.624;2024-01-30T03:15:40;28.30;;;16.60;;
3875;SDS011;1953;51.222;6.624;2024-01-30T03:20:24;28.50;;;17.90;;
3875;SDS011;1953;51.222;6.624;2024-01-30T03:25:07;27.47;;;17.20;;
3875;SDS011;1953;51.222;6.624;2024-01-30T03:29:49;29.73;;;17.10;;
3875;SDS011;1953;51.222;6.624;2024-01-30T03:34:32;25.93;;;16.70;;
3875;SDS011;1953;51.222;6.624;2024-01-30T03:39:16;27.10;;;16.47;;
3875;SDS011;1953;51.222;6.624;2024-01-30T03:43:59;25.03;;;16.27;;
3875;SDS011;1953;51.222;6.624;2024-01-30T03:48:41;29.10;;;17.80;;
3875;SDS011;1953;51.222;6.624;2024-01-30T03:53:24;34.33;;;17.73;;
3875;SDS011;1953;51.222;6.624;2024-01-30T03:58:07;29.00;;;17.07;;
3875;SDS011;1953;51.222;6.624;2024-01-30T04:02:50;29.50;;;16.70;;
3875;SDS011;1953;51.222;6.624;2024-01-30T04:07:32;26.13;;;16.40;;
3875;SDS011;1953;51.222;6.624;2024-01-30T04:12:15;31.50;;;16.93;;
3875;SDS011;1953;51.222;6.624;2024-01-30T04:16:59;27.03;;;16.67;;
3875;SDS011;1953;51.222;6.624;2024-01-30T04:21:42;28.13;;;16.80;;
3875;SDS011;1953;51.222;6.624;2024-01-30T04:26:24;29.40;;;18.30;;
3875;SDS011;1953;51.222;6.624;2024-01-30T04:31:07;29.20;;;17.37;;
3875;SDS011;1953;51.222;6.624;2024-01-30T04:35:51;29.40;;;17.67;;
3875;SDS011;1953;51.222;6.624;2024-01-30T04:40:33;30.03;;;17.97;;
3875;SDS011;1953;51.222;6.624;2024-01-30T04:45:16;28.50;;;17.10;;
3875;SDS011;1953;51.222;6.624;2024-01-30T04:49:58;27.70;;;17.80;;
3875;SDS011;1953;51.222;6.624;2024-01-30T04:54:42;34.40;;;19.30;;
3875;SDS011;1953;51.222;6.624;2024-01-30T04:59:24;30.37;;;18.33;;
3875;SDS011;1953;51.222;6.624;2024-01-30T05:04:07;32.07;;;17.83;;
3875;SDS011;1953;51.222;6.624;2024-01-30T05:08:50;26.50;;;17.07;;
3875;SDS011;1953;51.222;6.624;2024-01-30T05:13:34;26.87;;;17.20;;
3875;SDS011;1953;51.222;6.624;2024-01-30T05:18:16;29.97;;;18.60;;
3875;SDS011;1953;51.222;6.624;2024-01-30T05:22:59;28.53;;;16.93;;
3875;SDS011;1953;51.222;6.624;2024-01-30T05:27:41;32.30;;;18.60;;
3875;SDS011;1953;51.222;6.624;2024-01-30T05:32:25;31.73;;;18.70;;
3875;SDS011;1953;51.222;6.624;2024-01-30T05:37:08;31.37;;;19.40;;
3875;SDS011;1953;51.222;6.624;2024-01-30T05:41:54;36.30;;;19.80;;
3875;SDS011;1953;51.222;6.624;2024-01-30T05:46:37;32.17;;;18.70;;
3875;SDS011;1953;51.222;6.624;2024-01-30T05:51:21;34.50;;;21.40;;
3875;SDS011;1953;51.222;6.624;2024-01-30T05:56:04;39.43;;;22.23;;
3875;SDS011;1953;51.222;6.624;2024-01-30T06:00:47;31.80;;;18.90;;
3875;SDS011;1953;51.222;6.624;2024-01-30T06:05:29;30.40;;;18.50;;
3875;SDS011;1953;51.222;6.624;2024-01-30T06:10:13;35.17;;;20.33;;
3875;SDS011;1953;51.222;6.624;2024-01-30T06:14:56;28.67;;;17.90;;
3875;SDS011;1953;51.222;6.624;2024-01-30T06:19:38;32.63;;;18.50;;
3875;SDS011;1953;51.222;6.624;2024-01-30T06:24:20;31.63;;;19.10;;
3875;SDS011;1953;51.222;6.624;2024-01-30T06:29:04;35.80;;;20.17;;
3875;SDS011;1953;51.222;6.624;2024-01-30T06:33:48;30.20;;;18.30;;
3875;SDS011;1953;51.222;6.624;2024-01-30T06:38:31;31.60;;;18.53;;
3875;SDS011;1953;51.222;6.624;2024-01-30T06:43:13;29.43;;;17.10;;
3875;SDS011;1953;51.222;6.624;2024-01-30T06:47:57;30.80;;;18.67;;
3875;SDS011;1953;51.222;6.624;2024-01-30T06:52:40;33.17;;;17.97;;
3875;SDS011;1953;51.222;6.624;2024-01-30T06:57:22;28.83;;;17.80;;
3875;SDS011;1953;51.222;6.624;2024-01-30T07:02:05;30.23;;;18.60;;
3875;SDS011;1953;51.222;6.624;2024-01-30T07:06:49;28.20;;;17.50;;
3875;SDS011;1953;51.222;6.624;2024-01-30T07:15:36;30.40;;;16.90;;
3875;SDS011;1953;51.222;6.624;2024-01-30T07:20:19;28.50;;;17.07;;
3875;SDS011;1953;51.222;6.624;2024-01-30T07:25:03;26.70;;;16.17;;
3875;SDS011;1953;51.222;6.624;2024-01-30T07:29:47;28.87;;;16.23;;
3875;SDS011;1953;51.222;6.624;2024-01-30T07:34:29;27.00;;;16.63;;
3875;SDS011;1953;51.222;6.624;2024-01-30T07:39:12;26.10;;;17.00;;
3875;SDS011;1953;51.222;6.624;2024-01-30T07:43:55;34.43;;;16.07;;
3875;SDS011;1953;51.222;6.624;2024-01-30T07:48:38;24.33;;;16.37;;
3875;SDS011;1953;51.222;6.624;2024-01-30T07:53:20;30.50;;;16.07;;
3875;SDS011;1953;51.222;6.624;2024-01-30T07:58:03;26.43;;;17.43;;
3875;SDS011;1953;51.222;6.624;2024-01-30T08:02:47;24.90;;;15.97;;
3875;SDS011;1953;51.222;6.624;2024-01-30T08:07:30;26.93;;;16.53;;
3875;SDS011;1953;51.222;6.624;2024-01-30T08:12:12;33.50;;;17.00;;
3875;SDS011;1953;51.222;6.624;2024-01-30T08:16:55;25.37;;;16.40;;
3875;SDS011;1953;51.222;6.624;2024-01-30T08:21:39;26.23;;;15.80;;
3875;SDS011;1953;51.222;6.624;2024-01-30T08:26:21;26.47;;;15.27;;
3875;SDS011;1953;51.222;6.624;2024-01-30T08:31:04;24.27;;;16.23;;
3875;SDS011;1953;51.222;6.624;2024-01-30T08:35:46;27.30;;;15.73;;
3875;SDS011;1953;51.222;6.624;2024-01-30T08:40:30;24.60;;;15.97;;
3875;SDS011;1953;51.222;6.624;2024-01-30T08:45:13;25.77;;;16.77;;
3875;SDS011;1953;51.222;6.624;2024-01-30T08:49:55;25.70;;;17.23;;
3875;SDS011;1953;51.222;6.624;2024-01-30T08:54:38;25.47;;;15.80;;
3875;SDS011;1953;51.222;6.624;2024-01-30T08:59:22;24.40;;;17.00;;
3875;SDS011;1953;51.222;6.624;2024-01-30T09:04:04;27.00;;;17.80;;
3875;SDS011;1953;51.222;6.624;2024-01-30T09:08:47;25.10;;;16.23;;
3875;SDS011;1953;51.222;6.624;2024-01-30T09:13:29;36.03;;;17.20;;
3875;SDS011;1953;51.222;6.624;2024-01-30T09:18:13;26.57;;;17.63;;
3875;SDS011;1953;51.222;6.624;2024-01-30T09:22:56;27.87;;;16.57;;
3875;SDS011;1953;51.222;6.624;2024-01-30T09:27:38;26.07;;;16.50;;
3875;SDS011;1953;51.222;6.624;2024-01-30T09:32:21;40.90;;;20.70;;
3875;SDS011;1953;51.222;6.624;2024-01-30T09:37:05;27.50;;;17.90;;
3875;SDS011;1953;51.222;6.624;2024-01-30T09:41:48;28.90;;;16.90;;
3875;SDS011;1953;51.222;6.624;2024-01-30T09:46:36;25.40;;;16.93;;
3875;SDS011;1953;51.222;6.624;2024-01-30T09:51:19;25.10;;;16.57;;
3875;SDS011;1953;51.222;6.624;2024-01-30T09:56:05;25.77;;;16.67;;
3875;SDS011;1953;51.222;6.624;2024-01-30T10:00:48;29.90;;;17.10;;
3875;SDS011;1953;51.222;6.624;2024-01-30T10:05:31;26.73;;;15.43;;
3875;SDS011;1953;51.222;6.624;2024-01-30T10:10:15;25.50;;;16.60;;
3875;SDS011;1953;51.222;6.624;2024-01-30T10:14:59;26.27;;;16.17;;
3875;SDS011;1953;51.222;6.624;2024-01-30T10:19:41;26.50;;;16.67;;
3875;SDS011;1953;51.222;6.624;2024-01-30T10:24:24;29.60;;;17.30;;
3875;SDS011;1953;51.222;6.624;2024-01-30T10:29:07;32.30;;;16.80;;
3875;SDS011;1953;51.222;6.624;2024-01-30T10:33:51;25.07;;;15.70;;
3875;SDS011;1953;51.222;6.624;2024-01-30T10:38:34;25.60;;;16.13;;
3875;SDS011;1953;51.222;6.624;2024-01-30T10:43:16;27.20;;;17.40;;
3875;SDS011;1953;51.222;6.624;2024-01-30T10:48:03;27.87;;;17.33;;
3875;SDS011;1953;51.222;6.624;2024-01-30T10:52:52;24.13;;;16.47;;
3875;SDS011;1953;51.222;6.624;2024-01-30T10:57:36;30.80;;;18.03;;
3875;SDS011;1953;51.222;6.624;2024-01-30T11:02:19;28.97;;;17.50;;
3875;SDS011;1953;51.222;6.624;2024-01-30T11:07:13;25.40;;;17.17;;
3875;SDS011;1953;51.222;6.624;2024-01-30T11:11:58;25.80;;;17.03;;
3875;SDS011;1953;51.222;6.624;2024-01-30T11:16:42;27.77;;;18.07;;
3875;SDS011;1953;51.222;6.624;2024-01-30T11:21:25;34.60;;;19.00;;
3875;SDS011;1953;51.222;6.624;2024-01-30T11:26:07;35.57;;;22.67;;
3875;SDS011;1953;51.222;6.624;2024-01-30T11:31:02;38.07;;;22.40;;
3875;SDS011;1953;51.222;6.624;2024-01-30T11:35:45;35.23;;;20.97;;
3875;SDS011;1953;51.222;6.624;2024-01-30T11:40:28;27.63;;;17.90;;
3875;SDS011;1953;51.222;6.624;2024-01-30T11:45:11;26.60;;;16.40;;
3875;SDS011;1953;51.222;6.624;2024-01-30T11:49:55;30.77;;;16.50;;
3875;SDS011;1953;51.222;6.624;2024-01-30T11:54:39;29.90;;;16.87;;
3875;SDS011;1953;51.222;6.624;2024-01-30T11:59:22;24.73;;;12.13;;
3875;SDS011;1953;51.222;6.624;2024-01-30T12:04:04;19.43;;;11.00;;
3875;SDS011;1953;51.222;6.624;2024-01-30T12:08:57;22.50;;;9.53;;
3875;SDS011;1953;51.222;6.624;2024-01-30T12:13:40;20.83;;;9.73;;
3875;SDS011;1953;51.222;6.624;2024-01-30T12:21:55;20.83;;;9.37;;
3875;SDS011;1953;51.222;6.624;2024-01-30T12:26:39;19.60;;;10.00;;
3875;SDS011;1953;51.222;6.624;2024-01-30T12:31:25;15.90;;;8.57;;
3875;SDS011;1953;51.222;6.624;2024-01-30T12:36:08;15.57;;;9.67;;
3875;SDS011;1953;51.222;6.624;2024-01-30T12:40:55;24.87;;;10.37;;
3875;SDS011;1953;51.222;6.624;2024-01-30T12:45:37;22.50;;;9.40;;
3875;SDS011;1953;51.222;6.624;2024-01-30T12:50:20;22.77;;;9.50;;
3875;SDS011;1953;51.222;6.624;2024-01-30T12:55:03;18.33;;;10.07;;
3875;SDS011;1953;51.222;6.624;2024-01-30T12:59:47;26.63;;;10.70;;
3875;SDS011;1953;51.222;6.624;2024-01-30T13:04:30;21.90;;;10.80;;
3875;SDS011;1953;51.222;6.624;2024-01-30T13:09:13;16.90;;;10.20;;
3875;SDS011;1953;51.222;6.624;2024-01-30T13:13:55;21.17;;;10.77;;
3875;SDS011;1953;51.222;6.624;2024-01-30T13:18:39;16.93;;;10.60;;
3875;SDS011;1953;51.222;6.624;2024-01-30T13:23:22;22.67;;;10.03;;
3875;SDS011;1953;51.222;6.624;2024-01-30T13:28:06;20.93;;;10.17;;
3875;SDS011;1953;51.222;6.624;2024-01-30T13:32:53;21.67;;;10.70;;
3875;SDS011;1953;51.222;6.624;2024-01-30T13:42:56;21.73;;;11.57;;
3875;SDS011;1953;51.222;6.624;2024-01-30T13:47:38;21.27;;;11.93;;
3875;SDS011;1953;51.222;6.624;2024-01-30T13:52:37;18.57;;;11.07;;
3875;SDS011;1953;51.222;6.624;2024-01-30T13:57:41;19.77;;;11.63;;
3875;SDS011;1953;51.222;6.624;2024-01-30T14:02:24;16.87;;;8.77;;
3875;SDS011;1953;51.222;6.624;2024-01-30T14:07:07;22.13;;;12.33;;
3875;SDS011;1953;51.222;6.624;2024-01-30T14:12:41;20.10;;;12.63;;
3875;SDS011;1953;51.222;6.624;2024-01-30T14:17:19;22.30;;;11.47;;
3875;SDS011;1953;51.222;6.624;2024-01-30T14:22:08;24.33;;;12.20;;
3875;SDS011;1953;51.222;6.624;2024-01-30T14:27:03;21.63;;;11.87;;
3875;SDS011;1953;51.222;6.624;2024-01-30T14:31:57;18.03;;;11.30;;
3875;SDS011;1953;51.222;6.624;2024-01-30T14:37:17;20.77;;;12.07;;
3875;SDS011;1953;51.222;6.624;2024-01-30T14:42:39;17.33;;;10.87;;
3875;SDS011;1953;51.222;6.624;2024-01-30T14:53:27;16.40;;;10.70;;
3875;SDS011;1953;51.222;6.624;2024-01-30T15:04:01;16.27;;;8.00;;
3875;SDS011;1953;51.222;6.624;2024-01-30T15:09:07;16.10;;;8.20;;
3875;SDS011;1953;51.222;6.624;2024-01-30T15:13:55;13.40;;;7.37;;
3875;SDS011;1953;51.222;6.624;2024-01-30T15:18:55;13.03;;;7.70;;
3875;SDS011;1953;51.222;6.624;2024-01-30T15:23:41;18.93;;;7.50;;
3875;SDS011;1953;51.222;6.624;2024-01-30T15:38:54;8.27;;;4.13;;
3875;SDS011;1953;51.222;6.624;2024-01-30T15:43:18;6.37;;;3.10;;
3875;SDS011;1953;51.222;6.624;2024-01-30T15:48:05;5.20;;;2.10;;
3875;SDS011;1953;51.222;6.624;2024-01-30T15:52:48;7.00;;;3.53;;
3875;SDS011;1953;51.222;6.624;2024-01-30T15:57:30;7.47;;;3.33;;
3875;SDS011;1953;51.222;6.624;2024-01-30T16:02:13;16.03;;;11.00;;
3875;SDS011;1953;51.222;6.624;2024-01-30T16:06:57;8.87;;;4.70;;
3875;SDS011;1953;51.222;6.624;2024-01-30T16:11:40;7.03;;;2.50;;
3875;SDS011;1953;51.222;6.624;2024-01-30T16:16:23;5.70;;;2.97;;
3875;SDS011;1953;51.222;6.624;2024-01-30T16:21:06;4.13;;;2.20;;
3875;SDS011;1953;51.222;6.624;2024-01-30T16:25:50;6.30;;;2.93;;
3875;SDS011;1953;51.222;6.624;2024-01-30T16:30:33;5.07;;;2.40;;
3875;SDS011;1953;51.222;6.624;2024-01-30T16:35:16;4.87;;;2.40;;
3875;SDS011;1953;51.222;6.624;2024-01-30T16:39:59;5.20;;;2.20;;
3875;SDS011;1953;51.222;6.624;2024-01-30T16:44:42;5.20;;;2.23;;
3875;SDS011;1953;51.222;6.624;2024-01-30T16:49:25;5.10;;;2.30;;
3875;SDS011;1953;51.222;6.624;2024-01-30T16:54:08;5.10;;;1.87;;
3875;SDS011;1953;51.222;6.624;2024-01-30T16:58:50;7.53;;;2.10;;
3875;SDS011;1953;51.222;6.624;2024-01-30T17:03:34;6.00;;;2.27;;
3875;SDS011;1953;51.222;6.624;2024-01-30T17:08:16;3.77;;;2.23;;
3875;SDS011;1953;51.222;6.624;2024-01-30T17:12:59;6.37;;;2.90;;
3875;SDS011;1953;51.222;6.624;2024-01-30T17:17:42;6.67;;;2.40;;
3875;SDS011;1953;51.222;6.624;2024-01-30T17:22:27;7.73;;;2.70;;
3875;SDS011;1953;51.222;6.624;2024-01-30T17:27:10;4.40;;;2.27;;
3875;SDS011;1953;51.222;6.624;2024-01-30T17:31:55;7.70;;;2.70;;
3875;SDS011;1953;51.222;6.624;2024-01-30T17:36:37;6.33;;;3.00;;
3875;SDS011;1953;51.222;6.624;2024-01-30T17:41:21;11.83;;;4.00;;
3875;SDS011;1953;51.222;6.624;2024-01-30T17:46:04;15.30;;;8.00;;
3875;SDS011;1953;51.222;6.624;2024-01-30T17:50:47;7.83;;;4.50;;
3875;SDS011;1953;51.222;6.624;2024-01-30T17:55:29;9.73;;;4.77;;
3875;SDS011;1953;51.222;6.624;2024-01-30T18:00:14;8.10;;;4.57;;
3875;SDS011;1953;51.222;6.624;2024-01-30T18:04:57;7.57;;;3.50;;
3875;SDS011;1953;51.222;6.624;2024-01-30T18:09:40;11.37;;;4.67;;
3875;SDS011;1953;51.222;6.624;2024-01-30T18:14:22;9.07;;;4.30;;
3875;SDS011;1953;51.222;6.624;2024-01-30T18:19:06;6.80;;;4.53;;
3875;SDS011;1953;51.222;6.624;2024-01-30T18:23:49;7.87;;;4.90;;
3875;SDS011;1953;51.222;6.624;2024-01-30T18:28:31;5.90;;;4.33;;
3875;SDS011;1953;51.222;6.624;2024-01-30T18:33:14;7.93;;;5.30;;
3875;SDS011;1953;51.222;6.624;2024-01-30T18:37:58;9.00;;;5.10;;
3875;SDS011;1953;51.222;6.624;2024-01-30T18:42:42;9.60;;;5.43;;
3875;SDS011;1953;51.222;6.624;2024-01-30T18:47:24;11.80;;;4.77;;
3875;SDS011;1953;51.222;6.624;2024-01-30T18:52:07;14.33;;;6.77;;
3875;SDS011;1953;51.222;6.624;2024-01-30T18:56:51;10.70;;;5.00;;
3875;SDS011;1953;51.222;6.624;2024-01-30T19:01:33;7.70;;;4.93;;
3875;SDS011;1953;51.222;6.624;2024-01-30T19:06:19;11.00;;;6.20;;
3875;SDS011;1953;51.222;6.624;2024-01-30T19:11:01;9.90;;;4.80;;
3875;SDS011;1953;51.222;6.624;2024-01-30T19:15:45;9.33;;;4.80;;
3875;SDS011;1953;51.222;6.624;2024-01-30T19:20:28;9.50;;;4.97;;
3875;SDS011;1953;51.222;6.624;2024-01-30T19:24:57;7.27;;;4.20;;
3875;SDS011;1953;51.222;6.624;2024-01-30T19:29:41;6.47;;;3.63;;
3875;SDS011;1953;51.222;6.624;2024-01-30T19:34:25;9.40;;;5.03;;
3875;SDS011;1953;51.222;6.624;2024-01-30T19:39:08;9.40;;;5.00;;
3875;SDS011;1953;51.222;6.624;2024-01-30T19:43:53;14.80;;;5.30;;
3875;SDS011;1953;51.222;6.624;2024-01-30T19:48:36;18.10;;;11.50;;
3875;SDS011;1953;51.222;6.624;2024-01-30T19:53:20;15.73;;;7.23;;
3875;SDS011;1953;51.222;6.624;2024-01-30T19:58:02;16.70;;;9.40;;
3875;SDS011;1953;51.222;6.624;2024-01-30T20:02:45;10.83;;;6.23;;
3875;SDS011;1953;51.222;6.624;2024-01-30T20:07:28;9.43;;;6.17;;
3875;SDS011;1953;51.222;6.624;2024-01-30T20:12:12;11.40;;;5.70;;
3875;SDS011;1953;51.222;6.624;2024-01-30T20:16:54;14.83;;;6.40;;
3875;SDS011;1953;51.222;6.624;2024-01-30T20:21:37;10.90;;;6.43;;
3875;SDS011;1953;51.222;6.624;2024-01-30T20:26:20;10.53;;;7.13;;
3875;SDS011;1953;51.222;6.624;2024-01-30T20:31:04;12.40;;;6.93;;
3875;SDS011;1953;51.222;6.624;2024-01-30T20:35:46;13.00;;;7.33;;
3875;SDS011;1953;51.222;6.624;2024-01-30T20:40:29;12.63;;;8.00;;
3875;SDS011;1953;51.222;6.624;2024-01-30T20:45:11;14.23;;;7.40;;
3875;SDS011;1953;51.222;6.624;2024-01-30T20:49:55;14.10;;;8.00;;
3875;SDS011;1953;51.222;6.624;2024-01-30T20:54:38;16.13;;;8.70;;
3875;SDS011;1953;51.222;6.624;2024-01-30T20:59:20;14.23;;;8.53;;
3875;SDS011;1953;51.222;6.624;2024-01-30T21:04:03;14.20;;;8.30;;
3875;SDS011;1953;51.222;6.624;2024-01-30T21:08:47;18.83;;;8.77;;
3875;SDS011;1953;51.222;6.624;2024-01-30T21:13:29;16.27;;;9.00;;
3875;SDS011;1953;51.222;6.624;2024-01-30T21:18:12;13.27;;;8.50;;
3875;SDS011;1953;51.222;6.624;2024-01-30T21:22:55;17.83;;;9.57;;
3875;SDS011;1953;51.222;6.624;2024-01-30T21:27:38;15.20;;;8.47;;
3875;SDS011;1953;51.222;6.624;2024-01-30T21:32:22;15.43;;;8.60;;
3875;SDS011;1953;51.222;6.624;2024-01-30T21:37:04;15.10;;;9.20;;
3875;SDS011;1953;51.222;6.624;2024-01-30T21:41:47;21.97;;;12.07;;
3875;SDS011;1953;51.222;6.624;2024-01-30T21:46:31;17.60;;;10.20;;
3875;SDS011;1953;51.222;6.624;2024-01-30T21:51:13;19.70;;;11.30;;
3875;SDS011;1953;51.222;6.624;2024-01-30T21:55:58;17.77;;;9.00;;
3875;SDS011;1953;51.222;6.624;2024-01-30T22:00:40;21.40;;;11.93;;
3875;SDS011;1953;51.222;6.624;2024-01-30T22:05:24;17.17;;;9.87;;
3875;SDS011;1953;51.222;6.624;2024-01-30T22:10:07;21.50;;;11.47;;
3875;SDS011;1953;51.222;6.624;2024-01-30T22:14:50;25.07;;;12.00;;
3875;SDS011;1953;51.222;6.624;2024-01-30T22:19:33;22.50;;;13.00;;
3875;SDS011;1953;51.222;6.624;2024-01-30T22:24:16;22.03;;;12.13;;
3875;SDS011;1953;51.222;6.624;2024-01-30T22:29:00;22.30;;;11.90;;
3875;SDS011;1953;51.222;6.624;2024-01-30T22:33:42;24.97;;;13.00;;
3875;SDS011;1953;51.222;6.624;2024-01-30T22:38:26;25.83;;;14.17;;
3875;SDS011;1953;51.222;6.624;2024-01-30T22:43:10;23.90;;;13.07;;
3875;SDS011;1953;51.222;6.624;2024-01-30T22:47:52;24.30;;;13.53;;
3875;SDS011;1953;51.222;6.624;2024-01-30T22:52:35;23.73;;;12.73;;
3875;SDS011;1953;51.222;6.624;2024-01-30T22:57:18;25.90;;;14.03;;
3875;SDS011;1953;51.222;6.624;2024-01-30T23:02:02;24.80;;;13.40;;
3875;SDS011;1953;51.222;6.624;2024-01-30T23:06:44;23.63;;;13.13;;
3875;SDS011;1953;51.222;6.624;2024-01-30T23:11:27;26.83;;;13.63;;
3875;SDS011;1953;51.222;6.624;2024-01-30T23:16:09;25.17;;;14.60;;
3875;SDS011;1953;51.222;6.624;2024-01-30T23:20:53;25.70;;;14.00;;
3875;SDS011;1953;51.222;6.624;2024-01-30T23:25:35;26.50;;;14.80;;
3875;SDS011;1953;51.222;6.624;2024-01-30T23:30:18;31.10;;;14.10;;
3875;SDS011;1953;51.222;6.624;2024-01-30T23:35:00;29.53;;;15.67;;
3875;SDS011;1953;51.222;6.624;2024-01-30T23:39:44;26.73;;;14.30;;
3875;SDS011;1953;51.222;6.624;2024-01-30T23:44:27;28.20;;;15.60;;
3875;SDS011;1953;51.222;6.624;2024-01-30T23:49:09;29.73;;;16.00;;
3875;SDS011;1953;51.222;6.624;2024-01-30T23:53:52;30.70;;;16.47;;
3875;SDS011;1953;51.222;6.624;2024-01-30T23:58:36;31.23;;;16.70;;
